sensor_id;sensor_type;location;lat;lon;timestamp;pressure;altitude;pressure_sealevel;temperature;humidity
80693;BME280;70055;39.436;-77.514;2024-03-02T00:01:13;100904.48;;;7.30;36.03
80693;BME280;70055;39.436;-77.514;2024-03-02T00:03:42;100904.05;;;7.55;35.67
80693;BME280;70055;39.436;-77.514;2024-03-02T00:06:11;100902.76;;;7.62;36.14
80693;BME280;70055;39.436;-77.514;2024-03-02T00:08:40;100900.45;;;6.82;37.67
80693;BME280;70055;39.436;-77.514;2024-03-02T00:11:10;100897.04;;;7.99;36.27
80693;BME280;70055;39.436;-77.514;2024-03-02T00:13:39;100891.95;;;7.57;36.77
80693;BME280;70055;39.436;-77.514;2024-03-02T00:16:10;100886.69;;;6.43;38.40
80693;BME280;70055;39.436;-77.514;2024-03-02T00:18:39;100880.04;;;7.18;38.62
80693;BME280;70055;39.436;-77.514;2024-03-02T00:21:07;100881.02;;;7.05;38.02
80693;BME280;70055;39.436;-77.514;2024-03-02T00:23:36;100878.04;;;7.01;38.69
80693;BME280;70055;39.436;-77.514;2024-03-02T00:26:06;100879.37;;;7.52;37.71
80693;BME280;70055;39.436;-77.514;2024-03-02T00:28:34;100876.75;;;7.12;38.59
80693;BME280;70055;39.436;-77.514;2024-03-02T00:31:05;100875.29;;;6.96;38.63
80693;BME280;70055;39.436;-77.514;2024-03-02T00:33:35;100878.07;;;7.11;38.52
80693;BME280;70055;39.436;-77.514;2024-03-02T00:36:05;100873.39;;;6.88;39.23
80693;BME280;70055;39.436;-77.514;2024-03-02T00:38:44;100877.56;;;7.06;39.10
80693;BME280;70055;39.436;-77.514;2024-03-02T00:41:20;100878.43;;;7.49;38.40
80693;BME280;70055;39.436;-77.514;2024-03-02T00:43:59;100873.76;;;6.73;39.80
80693;BME280;70055;39.436;-77.514;2024-03-02T00:46:30;100878.16;;;6.51;41.52
80693;BME280;70055;39.436;-77.514;2024-03-02T00:49:02;100879.48;;;6.89;40.65
80693;BME280;70055;39.436;-77.514;2024-03-02T00:51:33;100882.85;;;6.65;41.47
80693;BME280;70055;39.436;-77.514;2024-03-02T00:54:03;100880.79;;;7.05;40.75
80693;BME280;70055;39.436;-77.514;2024-03-02T00:56:32;100887.65;;;5.72;41.97
80693;BME280;70055;39.436;-77.514;2024-03-02T00:59:01;100887.50;;;6.88;40.99
80693;BME280;70055;39.436;-77.514;2024-03-02T01:01:29;100886.14;;;6.73;42.27
80693;BME280;70055;39.436;-77.514;2024-03-02T01:04:00;100891.54;;;5.84;44.04
80693;BME280;70055;39.436;-77.514;2024-03-02T01:06:30;100889.05;;;6.43;43.52
80693;BME280;70055;39.436;-77.514;2024-03-02T01:08:59;100885.81;;;6.66;43.08
80693;BME280;70055;39.436;-77.514;2024-03-02T01:11:27;100886.68;;;6.12;42.98
80693;BME280;70055;39.436;-77.514;2024-03-02T01:13:55;100887.54;;;5.70;44.76
80693;BME280;70055;39.436;-77.514;2024-03-02T01:16:22;100876.20;;;7.22;43.34
80693;BME280;70055;39.436;-77.514;2024-03-02T01:18:51;100877.53;;;7.44;41.90
80693;BME280;70055;39.436;-77.514;2024-03-02T01:21:19;100871.66;;;6.47;42.89
80693;BME280;70055;39.436;-77.514;2024-03-02T01:23:48;100868.20;;;7.36;42.61
80693;BME280;70055;39.436;-77.514;2024-03-02T01:26:16;100864.98;;;5.92;43.93
80693;BME280;70055;39.436;-77.514;2024-03-02T01:28:44;100867.88;;;6.18;44.61
80693;BME280;70055;39.436;-77.514;2024-03-02T01:31:14;100868.48;;;7.57;43.41
80693;BME280;70055;39.436;-77.514;2024-03-02T01:33:42;100866.63;;;6.89;43.97
80693;BME280;70055;39.436;-77.514;2024-03-02T01:36:11;100869.16;;;7.25;42.90
80693;BME280;70055;39.436;-77.514;2024-03-02T01:38:40;100867.50;;;7.36;42.37
80693;BME280;70055;39.436;-77.514;2024-03-02T01:41:08;100866.75;;;6.47;43.28
80693;BME280;70055;39.436;-77.514;2024-03-02T01:43:39;100870.86;;;7.42;42.71
80693;BME280;70055;39.436;-77.514;2024-03-02T01:46:07;100871.05;;;6.84;42.82
80693;BME280;70055;39.436;-77.514;2024-03-02T01:48:35;100871.42;;;7.75;41.99
80693;BME280;70055;39.436;-77.514;2024-03-02T01:51:06;100871.92;;;7.25;42.80
80693;BME280;70055;39.436;-77.514;2024-03-02T01:53:35;100871.59;;;6.86;44.62
80693;BME280;70055;39.436;-77.514;2024-03-02T01:56:03;100872.89;;;7.05;44.23
80693;BME280;70055;39.436;-77.514;2024-03-02T01:58:31;100866.68;;;7.11;43.55
80693;BME280;70055;39.436;-77.514;2024-03-02T02:01:01;100866.57;;;7.51;44.23
80693;BME280;70055;39.436;-77.514;2024-03-02T02:03:31;100864.45;;;7.07;44.15
80693;BME280;70055;39.436;-77.514;2024-03-02T02:05:59;100858.32;;;7.50;42.27
80693;BME280;70055;39.436;-77.514;2024-03-02T02:08:28;100858.40;;;7.65;43.69
80693;BME280;70055;39.436;-77.514;2024-03-02T02:10:57;100855.66;;;6.95;43.50
80693;BME280;70055;39.436;-77.514;2024-03-02T02:13:25;100852.13;;;7.34;43.93
80693;BME280;70055;39.436;-77.514;2024-03-02T02:15:55;100859.61;;;5.94;44.93
80693;BME280;70055;39.436;-77.514;2024-03-02T02:18:24;100853.68;;;7.18;44.84
80693;BME280;70055;39.436;-77.514;2024-03-02T02:20:52;100853.42;;;6.59;45.17
80693;BME280;70055;39.436;-77.514;2024-03-02T02:23:20;100850.51;;;6.22;45.74
80693;BME280;70055;39.436;-77.514;2024-03-02T02:25:48;100846.42;;;6.85;45.72
80693;BME280;70055;39.436;-77.514;2024-03-02T02:28:15;100848.39;;;7.19;43.66
80693;BME280;70055;39.436;-77.514;2024-03-02T02:30:46;100839.52;;;6.59;46.83
80693;BME280;70055;39.436;-77.514;2024-03-02T02:33:15;100838.06;;;6.97;46.56
80693;BME280;70055;39.436;-77.514;2024-03-02T02:35:43;100838.43;;;6.26;46.65
80693;BME280;70055;39.436;-77.514;2024-03-02T02:38:10;100834.63;;;6.35;47.76
80693;BME280;70055;39.436;-77.514;2024-03-02T02:40:38;100827.54;;;6.90;46.75
80693;BME280;70055;39.436;-77.514;2024-03-02T02:43:05;100821.17;;;6.84;46.24
80693;BME280;70055;39.436;-77.514;2024-03-02T02:45:35;100815.09;;;7.09;46.14
80693;BME280;70055;39.436;-77.514;2024-03-02T02:48:05;100813.50;;;5.60;48.41
80693;BME280;70055;39.436;-77.514;2024-03-02T02:50:38;100807.25;;;6.82;46.56
80693;BME280;70055;39.436;-77.514;2024-03-02T02:53:06;100812.33;;;6.86;46.07
80693;BME280;70055;39.436;-77.514;2024-03-02T02:55:36;100822.80;;;6.80;47.20
80693;BME280;70055;39.436;-77.514;2024-03-02T02:58:04;100822.14;;;7.14;46.29
80693;BME280;70055;39.436;-77.514;2024-03-02T03:00:33;100827.83;;;7.25;47.30
80693;BME280;70055;39.436;-77.514;2024-03-02T03:03:02;100832.19;;;6.58;47.72
80693;BME280;70055;39.436;-77.514;2024-03-02T03:05:30;100840.23;;;7.61;45.77
80693;BME280;70055;39.436;-77.514;2024-03-02T03:08:00;100843.75;;;6.90;46.82
80693;BME280;70055;39.436;-77.514;2024-03-02T03:10:30;100858.34;;;5.82;49.93
80693;BME280;70055;39.436;-77.514;2024-03-02T03:12:58;100867.00;;;5.84;51.00
80693;BME280;70055;39.436;-77.514;2024-03-02T03:15:26;100864.76;;;5.94;51.91
80693;BME280;70055;39.436;-77.514;2024-03-02T03:17:54;100867.40;;;6.01;51.26
80693;BME280;70055;39.436;-77.514;2024-03-02T03:20:23;100878.38;;;5.75;53.15
80693;BME280;70055;39.436;-77.514;2024-03-02T03:22:51;100879.81;;;4.93;55.29
80693;BME280;70055;39.436;-77.514;2024-03-02T03:25:19;100879.11;;;4.89;55.96
80693;BME280;70055;39.436;-77.514;2024-03-02T03:27:47;100874.52;;;5.92;55.36
80693;BME280;70055;39.436;-77.514;2024-03-02T03:30:15;100872.66;;;6.83;53.46
80693;BME280;70055;39.436;-77.514;2024-03-02T03:32:43;100881.66;;;4.38;58.31
80693;BME280;70055;39.436;-77.514;2024-03-02T03:35:13;100877.53;;;5.54;56.64
80693;BME280;70055;39.436;-77.514;2024-03-02T03:37:42;100876.18;;;5.94;56.07
80693;BME280;70055;39.436;-77.514;2024-03-02T03:40:12;100870.56;;;6.64;53.95
80693;BME280;70055;39.436;-77.514;2024-03-02T03:42:40;100876.16;;;5.37;57.34
80693;BME280;70055;39.436;-77.514;2024-03-02T03:45:08;100873.37;;;5.40;57.57
80693;BME280;70055;39.436;-77.514;2024-03-02T03:47:36;100872.53;;;5.05;57.67
80693;BME280;70055;39.436;-77.514;2024-03-02T03:50:06;100866.30;;;5.20;59.69
80693;BME280;70055;39.436;-77.514;2024-03-02T03:52:35;100855.70;;;6.29;56.57
80693;BME280;70055;39.436;-77.514;2024-03-02T03:55:02;100857.58;;;5.72;57.11
80693;BME280;70055;39.436;-77.514;2024-03-02T03:57:31;100848.83;;;6.48;55.31
80693;BME280;70055;39.436;-77.514;2024-03-02T03:59:59;100847.19;;;6.26;55.76
80693;BME280;70055;39.436;-77.514;2024-03-02T04:02:28;100847.96;;;5.55;57.50
80693;BME280;70055;39.436;-77.514;2024-03-02T04:04:56;100839.82;;;6.35;56.09
80693;BME280;70055;39.436;-77.514;2024-03-02T04:07:23;100837.06;;;5.84;56.26
80693;BME280;70055;39.436;-77.514;2024-03-02T04:09:50;100836.60;;;4.87;58.61
80693;BME280;70055;39.436;-77.514;2024-03-02T04:12:18;100834.71;;;4.72;59.35
80693;BME280;70055;39.436;-77.514;2024-03-02T04:14:46;100835.24;;;5.69;58.36
80693;BME280;70055;39.436;-77.514;2024-03-02T04:17:15;100830.90;;;4.82;59.67
80693;BME280;70055;39.436;-77.514;2024-03-02T04:19:43;100820.59;;;4.28;61.70
80693;BME280;70055;39.436;-77.514;2024-03-02T04:22:14;100817.83;;;4.98;60.19
80693;BME280;70055;39.436;-77.514;2024-03-02T04:24:42;100818.06;;;4.96;60.31
80693;BME280;70055;39.436;-77.514;2024-03-02T04:27:10;100813.88;;;5.08;59.91
80693;BME280;70055;39.436;-77.514;2024-03-02T04:29:38;100810.59;;;3.71;64.08
80693;BME280;70055;39.436;-77.514;2024-03-02T04:32:06;100803.09;;;4.09;63.51
80693;BME280;70055;39.436;-77.514;2024-03-02T04:34:34;100797.40;;;4.44;62.18
80693;BME280;70055;39.436;-77.514;2024-03-02T04:37:03;100804.29;;;3.71;64.12
80693;BME280;70055;39.436;-77.514;2024-03-02T04:39:34;100797.02;;;4.53;61.81
80693;BME280;70055;39.436;-77.514;2024-03-02T04:42:02;100792.82;;;4.10;62.25
80693;BME280;70055;39.436;-77.514;2024-03-02T04:44:32;100787.55;;;4.18;63.68
80693;BME280;70055;39.436;-77.514;2024-03-02T04:47:00;100788.16;;;4.77;62.27
80693;BME280;70055;39.436;-77.514;2024-03-02T04:49:29;100774.33;;;4.06;63.40
80693;BME280;70055;39.436;-77.514;2024-03-02T04:51:58;100778.91;;;4.88;61.30
80693;BME280;70055;39.436;-77.514;2024-03-02T04:54:26;100776.77;;;4.43;62.36
80693;BME280;70055;39.436;-77.514;2024-03-02T04:56:56;100781.32;;;3.27;65.56
80693;BME280;70055;39.436;-77.514;2024-03-02T04:59:24;100780.97;;;3.26;66.41
80693;BME280;70055;39.436;-77.514;2024-03-02T05:01:52;100782.82;;;3.66;65.74
80693;BME280;70055;39.436;-77.514;2024-03-02T05:04:20;100788.90;;;3.29;65.82
80693;BME280;70055;39.436;-77.514;2024-03-02T05:06:48;100795.95;;;3.11;66.91
80693;BME280;70055;39.436;-77.514;2024-03-02T05:09:16;100797.07;;;3.75;65.65
80693;BME280;70055;39.436;-77.514;2024-03-02T05:11:43;100795.25;;;3.18;65.89
80693;BME280;70055;39.436;-77.514;2024-03-02T05:14:11;100793.81;;;3.66;65.59
80693;BME280;70055;39.436;-77.514;2024-03-02T05:16:39;100790.62;;;4.09;64.59
80693;BME280;70055;39.436;-77.514;2024-03-02T05:19:08;100788.18;;;3.34;66.15
80693;BME280;70055;39.436;-77.514;2024-03-02T05:21:36;100775.00;;;4.01;64.20
80693;BME280;70055;39.436;-77.514;2024-03-02T05:24:04;100769.99;;;4.35;62.36
80693;BME280;70055;39.436;-77.514;2024-03-02T05:26:32;100766.37;;;4.76;61.50
80693;BME280;70055;39.436;-77.514;2024-03-02T05:29:00;100762.80;;;4.74;61.40
80693;BME280;70055;39.436;-77.514;2024-03-02T05:31:27;100764.32;;;5.14;60.25
80693;BME280;70055;39.436;-77.514;2024-03-02T05:33:57;100758.40;;;5.59;59.05
80693;BME280;70055;39.436;-77.514;2024-03-02T05:36:24;100758.45;;;4.59;62.24
80693;BME280;70055;39.436;-77.514;2024-03-02T05:38:52;100749.99;;;4.43;62.94
80693;BME280;70055;39.436;-77.514;2024-03-02T05:41:22;100737.33;;;3.87;63.26
80693;BME280;70055;39.436;-77.514;2024-03-02T05:43:50;100734.70;;;3.75;64.70
80693;BME280;70055;39.436;-77.514;2024-03-02T05:46:17;100724.18;;;3.70;63.93
80693;BME280;70055;39.436;-77.514;2024-03-02T05:48:45;100730.25;;;3.63;65.83
80693;BME280;70055;39.436;-77.514;2024-03-02T05:51:15;100722.86;;;4.27;63.83
80693;BME280;70055;39.436;-77.514;2024-03-02T05:53:42;100721.74;;;4.04;63.58
80693;BME280;70055;39.436;-77.514;2024-03-02T05:56:10;100723.31;;;3.91;64.26
80693;BME280;70055;39.436;-77.514;2024-03-02T05:58:38;100724.53;;;4.24;63.94
80693;BME280;70055;39.436;-77.514;2024-03-02T06:01:08;100719.19;;;3.93;63.71
80693;BME280;70055;39.436;-77.514;2024-03-02T06:03:36;100713.46;;;4.06;63.41
80693;BME280;70055;39.436;-77.514;2024-03-02T06:06:04;100711.14;;;3.36;65.41
80693;BME280;70055;39.436;-77.514;2024-03-02T06:08:32;100707.68;;;3.13;66.31
80693;BME280;70055;39.436;-77.514;2024-03-02T06:11:00;100707.20;;;4.08;63.39
80693;BME280;70055;39.436;-77.514;2024-03-02T06:13:28;100708.78;;;3.95;63.95
80693;BME280;70055;39.436;-77.514;2024-03-02T06:15:57;100715.44;;;3.34;66.28
80693;BME280;70055;39.436;-77.514;2024-03-02T06:18:25;100710.04;;;3.15;66.46
80693;BME280;70055;39.436;-77.514;2024-03-02T06:20:55;100706.20;;;3.89;64.89
80693;BME280;70055;39.436;-77.514;2024-03-02T06:23:23;100702.21;;;3.88;64.39
80693;BME280;70055;39.436;-77.514;2024-03-02T06:25:50;100697.83;;;3.61;64.82
80693;BME280;70055;39.436;-77.514;2024-03-02T06:28:18;100701.12;;;2.64;68.10
80693;BME280;70055;39.436;-77.514;2024-03-02T06:30:46;100689.46;;;3.49;65.37
80693;BME280;70055;39.436;-77.514;2024-03-02T06:33:13;100687.54;;;3.91;64.61
80693;BME280;70055;39.436;-77.514;2024-03-02T06:35:42;100685.87;;;3.68;64.42
80693;BME280;70055;39.436;-77.514;2024-03-02T06:38:11;100687.26;;;3.74;64.20
80693;BME280;70055;39.436;-77.514;2024-03-02T06:40:38;100686.22;;;2.95;65.19
80693;BME280;70055;39.436;-77.514;2024-03-02T06:43:07;100682.25;;;3.61;63.98
80693;BME280;70055;39.436;-77.514;2024-03-02T06:45:35;100678.52;;;4.26;63.25
80693;BME280;70055;39.436;-77.514;2024-03-02T06:48:03;100669.76;;;3.84;62.16
80693;BME280;70055;39.436;-77.514;2024-03-02T06:50:31;100661.99;;;3.40;65.07
80693;BME280;70055;39.436;-77.514;2024-03-02T06:52:59;100655.45;;;3.29;64.67
80693;BME280;70055;39.436;-77.514;2024-03-02T06:55:26;100655.27;;;3.97;63.52
80693;BME280;70055;39.436;-77.514;2024-03-02T06:57:55;100649.72;;;3.73;63.13
80693;BME280;70055;39.436;-77.514;2024-03-02T07:00:23;100643.78;;;3.66;63.37
80693;BME280;70055;39.436;-77.514;2024-03-02T07:02:51;100641.93;;;2.92;65.60
80693;BME280;70055;39.436;-77.514;2024-03-02T07:05:19;100634.87;;;3.21;65.55
80693;BME280;70055;39.436;-77.514;2024-03-02T07:07:50;100631.41;;;2.64;66.41
80693;BME280;70055;39.436;-77.514;2024-03-02T07:10:18;100632.22;;;2.24;67.83
80693;BME280;70055;39.436;-77.514;2024-03-02T07:12:46;100625.43;;;2.80;67.28
80693;BME280;70055;39.436;-77.514;2024-03-02T07:15:13;100622.87;;;3.15;66.43
80693;BME280;70055;39.436;-77.514;2024-03-02T07:17:42;100611.43;;;3.26;65.68
80693;BME280;70055;39.436;-77.514;2024-03-02T07:20:11;100609.37;;;2.87;65.77
80693;BME280;70055;39.436;-77.514;2024-03-02T07:22:39;100609.09;;;3.09;66.05
80693;BME280;70055;39.436;-77.514;2024-03-02T07:25:07;100606.35;;;2.76;65.57
80693;BME280;70055;39.436;-77.514;2024-03-02T07:27:35;100597.25;;;2.62;67.73
80693;BME280;70055;39.436;-77.514;2024-03-02T07:30:05;100590.65;;;2.17;68.29
80693;BME280;70055;39.436;-77.514;2024-03-02T07:32:34;100582.68;;;1.43;71.22
80693;BME280;70055;39.436;-77.514;2024-03-02T07:35:04;100583.81;;;2.04;69.71
80693;BME280;70055;39.436;-77.514;2024-03-02T07:37:32;100581.25;;;2.20;69.93
80693;BME280;70055;39.436;-77.514;2024-03-02T07:40:01;100567.10;;;2.43;68.64
80693;BME280;70055;39.436;-77.514;2024-03-02T07:42:29;100562.32;;;2.25;69.44
80693;BME280;70055;39.436;-77.514;2024-03-02T07:44:57;100551.53;;;2.11;69.47
80693;BME280;70055;39.436;-77.514;2024-03-02T07:47:25;100548.82;;;2.22;69.26
80693;BME280;70055;39.436;-77.514;2024-03-02T07:49:53;100546.09;;;2.94;67.53
80693;BME280;70055;39.436;-77.514;2024-03-02T07:52:20;100549.54;;;2.75;68.45
80693;BME280;70055;39.436;-77.514;2024-03-02T07:54:49;100552.56;;;3.25;65.34
80693;BME280;70055;39.436;-77.514;2024-03-02T07:57:17;100554.41;;;3.15;65.53
80693;BME280;70055;39.436;-77.514;2024-03-02T07:59:46;100544.79;;;4.29;62.55
80693;BME280;70055;39.436;-77.514;2024-03-02T08:02:14;100531.04;;;4.31;61.39
80693;BME280;70055;39.436;-77.514;2024-03-02T08:04:41;100531.42;;;2.89;65.37
80693;BME280;70055;39.436;-77.514;2024-03-02T08:07:10;100527.40;;;3.30;64.91
80693;BME280;70055;39.436;-77.514;2024-03-02T08:09:38;100518.74;;;4.39;61.84
80693;BME280;70055;39.436;-77.514;2024-03-02T08:12:07;100527.84;;;2.85;64.76
80693;BME280;70055;39.436;-77.514;2024-03-02T08:14:35;100519.29;;;3.84;63.16
80693;BME280;70055;39.436;-77.514;2024-03-02T08:17:03;100514.08;;;2.59;66.29
80693;BME280;70055;39.436;-77.514;2024-03-02T08:19:31;100510.71;;;2.23;68.61
80693;BME280;70055;39.436;-77.514;2024-03-02T08:21:59;100511.82;;;2.05;69.95
80693;BME280;70055;39.436;-77.514;2024-03-02T08:24:27;100509.82;;;1.18;73.67
80693;BME280;70055;39.436;-77.514;2024-03-02T08:26:58;100508.23;;;1.42;72.61
80693;BME280;70055;39.436;-77.514;2024-03-02T08:29:26;100504.13;;;1.26;73.30
80693;BME280;70055;39.436;-77.514;2024-03-02T08:31:55;100507.41;;;1.20;74.59
80693;BME280;70055;39.436;-77.514;2024-03-02T08:34:24;100502.23;;;2.58;69.86
80693;BME280;70055;39.436;-77.514;2024-03-02T08:36:51;100502.39;;;1.72;70.97
80693;BME280;70055;39.436;-77.514;2024-03-02T08:39:20;100495.96;;;2.60;69.32
80693;BME280;70055;39.436;-77.514;2024-03-02T08:41:48;100497.10;;;1.85;71.58
80693;BME280;70055;39.436;-77.514;2024-03-02T08:44:18;100492.02;;;1.28;73.85
80693;BME280;70055;39.436;-77.514;2024-03-02T08:46:46;100486.49;;;1.54;74.01
80693;BME280;70055;39.436;-77.514;2024-03-02T08:49:15;100483.75;;;1.92;72.68
80693;BME280;70055;39.436;-77.514;2024-03-02T08:51:43;100477.17;;;2.30;71.11
80693;BME280;70055;39.436;-77.514;2024-03-02T08:54:15;100470.70;;;2.21;71.66
80693;BME280;70055;39.436;-77.514;2024-03-02T08:56:42;100469.38;;;0.71;75.71
80693;BME280;70055;39.436;-77.514;2024-03-02T08:59:10;100467.92;;;1.28;74.63
80693;BME280;70055;39.436;-77.514;2024-03-02T09:01:40;100463.95;;;1.49;74.23
80693;BME280;70055;39.436;-77.514;2024-03-02T09:04:08;100468.59;;;0.81;75.11
80693;BME280;70055;39.436;-77.514;2024-03-02T09:06:36;100467.93;;;1.48;72.78
80693;BME280;70055;39.436;-77.514;2024-03-02T09:09:05;100464.63;;;1.74;72.49
80693;BME280;70055;39.436;-77.514;2024-03-02T09:11:33;100459.61;;;1.39;73.82
80693;BME280;70055;39.436;-77.514;2024-03-02T09:14:00;100452.96;;;1.52;74.45
80693;BME280;70055;39.436;-77.514;2024-03-02T09:16:28;100450.23;;;1.83;72.80
80693;BME280;70055;39.436;-77.514;2024-03-02T09:18:55;100439.06;;;1.07;75.27
80693;BME280;70055;39.436;-77.514;2024-03-02T09:21:23;100439.04;;;1.24;75.79
80693;BME280;70055;39.436;-77.514;2024-03-02T09:23:51;100436.42;;;0.51;79.03
80693;BME280;70055;39.436;-77.514;2024-03-02T09:26:19;100426.59;;;0.48;79.25
80693;BME280;70055;39.436;-77.514;2024-03-02T09:28:47;100427.93;;;0.55;79.63
80693;BME280;70055;39.436;-77.514;2024-03-02T09:31:14;100428.89;;;0.43;79.43
80693;BME280;70055;39.436;-77.514;2024-03-02T09:33:44;100430.01;;;0.60;79.17
80693;BME280;70055;39.436;-77.514;2024-03-02T09:36:18;100429.61;;;0.46;79.98
80693;BME280;70055;39.436;-77.514;2024-03-02T09:38:46;100435.42;;;0.17;81.04
80693;BME280;70055;39.436;-77.514;2024-03-02T09:41:14;100428.73;;;0.89;79.52
80693;BME280;70055;39.436;-77.514;2024-03-02T09:43:42;100418.90;;;0.67;79.45
80693;BME280;70055;39.436;-77.514;2024-03-02T09:46:10;100413.53;;;0.82;79.46
80693;BME280;70055;39.436;-77.514;2024-03-02T09:48:38;100411.36;;;0.90;78.05
80693;BME280;70055;39.436;-77.514;2024-03-02T09:51:05;100422.00;;;0.80;78.29
80693;BME280;70055;39.436;-77.514;2024-03-02T09:53:34;100408.36;;;0.96;77.65
80693;BME280;70055;39.436;-77.514;2024-03-02T09:56:03;100402.25;;;1.52;75.77
80693;BME280;70055;39.436;-77.514;2024-03-02T09:58:31;100399.37;;;0.58;79.07
80693;BME280;70055;39.436;-77.514;2024-03-02T10:00:59;100387.10;;;0.49;79.31
80693;BME280;70055;39.436;-77.514;2024-03-02T10:03:29;100381.16;;;0.51;79.63
80693;BME280;70055;39.436;-77.514;2024-03-02T10:06:19;100376.26;;;0.67;79.63
80693;BME280;70055;39.436;-77.514;2024-03-02T10:08:47;100367.18;;;0.62;79.46
80693;BME280;70055;39.436;-77.514;2024-03-02T10:11:26;100364.19;;;0.44;80.12
80693;BME280;70055;39.436;-77.514;2024-03-02T10:14:07;100369.02;;;0.41;79.37
80693;BME280;70055;39.436;-77.514;2024-03-02T10:16:36;100373.90;;;1.50;76.92
80693;BME280;70055;39.436;-77.514;2024-03-02T10:19:19;100351.66;;;0.75;79.38
80693;BME280;70055;39.436;-77.514;2024-03-02T10:21:48;100345.64;;;0.48;79.85
80693;BME280;70055;39.436;-77.514;2024-03-02T10:24:17;100330.56;;;0.51;80.21
80693;BME280;70055;39.436;-77.514;2024-03-02T10:26:47;100324.15;;;0.16;80.52
80693;BME280;70055;39.436;-77.514;2024-03-02T10:29:16;100331.83;;;0.09;80.77
80693;BME280;70055;39.436;-77.514;2024-03-02T10:31:45;100338.51;;;0.32;80.51
80693;BME280;70055;39.436;-77.514;2024-03-02T10:34:15;100329.50;;;-0.27;83.52
80693;BME280;70055;39.436;-77.514;2024-03-02T10:36:44;100317.66;;;-0.35;84.59
80693;BME280;70055;39.436;-77.514;2024-03-02T10:39:13;100328.46;;;0.67;79.94
80693;BME280;70055;39.436;-77.514;2024-03-02T10:41:44;100324.56;;;-0.13;81.76
80693;BME280;70055;39.436;-77.514;2024-03-02T10:44:14;100305.56;;;-0.48;83.90
80693;BME280;70055;39.436;-77.514;2024-03-02T10:46:43;100294.69;;;-0.34;84.37
80693;BME280;70055;39.436;-77.514;2024-03-02T10:49:13;100301.35;;;0.07;82.77
80693;BME280;70055;39.436;-77.514;2024-03-02T10:51:42;100306.06;;;-0.10;83.56
80693;BME280;70055;39.436;-77.514;2024-03-02T10:54:10;100308.10;;;-0.12;84.02
80693;BME280;70055;39.436;-77.514;2024-03-02T10:56:40;100309.60;;;-0.39;84.68
80693;BME280;70055;39.436;-77.514;2024-03-02T10:59:24;100311.72;;;-0.33;83.63
80693;BME280;70055;39.436;-77.514;2024-03-02T11:01:57;100301.27;;;-0.04;83.44
80693;BME280;70055;39.436;-77.514;2024-03-02T11:04:28;100308.75;;;0.29;82.78
80693;BME280;70055;39.436;-77.514;2024-03-02T11:07:02;100314.33;;;0.31;82.37
80693;BME280;70055;39.436;-77.514;2024-03-02T11:09:35;100305.04;;;-0.24;83.85
80693;BME280;70055;39.436;-77.514;2024-03-02T11:12:09;100296.97;;;-0.27;83.95
80693;BME280;70055;39.436;-77.514;2024-03-02T11:14:41;100290.70;;;-0.20;83.21
80693;BME280;70055;39.436;-77.514;2024-03-02T11:17:11;100282.99;;;0.03;83.23
80693;BME280;70055;39.436;-77.514;2024-03-02T11:19:41;100280.49;;;-0.04;82.33
80693;BME280;70055;39.436;-77.514;2024-03-02T11:22:12;100283.85;;;0.58;81.73
80693;BME280;70055;39.436;-77.514;2024-03-02T11:24:48;100280.14;;;0.66;81.05
80693;BME280;70055;39.436;-77.514;2024-03-02T11:27:59;100281.34;;;0.29;82.50
80693;BME280;70055;39.436;-77.514;2024-03-02T11:30:55;100272.59;;;0.95;80.66
80693;BME280;70055;39.436;-77.514;2024-03-02T11:33:25;100262.49;;;0.81;82.18
80693;BME280;70055;39.436;-77.514;2024-03-02T11:35:53;100266.45;;;0.87;82.53
80693;BME280;70055;39.436;-77.514;2024-03-02T11:38:22;100254.91;;;0.82;81.93
80693;BME280;70055;39.436;-77.514;2024-03-02T11:40:51;100268.33;;;1.16;81.70
80693;BME280;70055;39.436;-77.514;2024-03-02T11:43:21;100264.28;;;1.02;81.47
80693;BME280;70055;39.436;-77.514;2024-03-02T11:45:48;100250.46;;;1.39;79.94
80693;BME280;70055;39.436;-77.514;2024-03-02T11:48:27;100256.79;;;1.25;80.12
80693;BME280;70055;39.436;-77.514;2024-03-02T11:51:00;100262.51;;;1.20;80.47
80693;BME280;70055;39.436;-77.514;2024-03-02T11:53:28;100261.33;;;0.94;80.91
80693;BME280;70055;39.436;-77.514;2024-03-02T11:56:00;100260.87;;;0.83;80.62
80693;BME280;70055;39.436;-77.514;2024-03-02T11:58:29;100272.14;;;1.10;80.97
80693;BME280;70055;39.436;-77.514;2024-03-02T12:00:57;100263.08;;;1.00;81.45
80693;BME280;70055;39.436;-77.514;2024-03-02T12:03:26;100261.81;;;1.37;81.04
80693;BME280;70055;39.436;-77.514;2024-03-02T12:05:55;100256.76;;;1.36;80.50
80693;BME280;70055;39.436;-77.514;2024-03-02T12:08:23;100260.70;;;1.08;81.74
80693;BME280;70055;39.436;-77.514;2024-03-02T12:11:00;100259.58;;;1.12;81.53
80693;BME280;70055;39.436;-77.514;2024-03-02T12:13:29;100255.17;;;1.86;80.42
80693;BME280;70055;39.436;-77.514;2024-03-02T12:15:57;100252.01;;;1.50;81.95
80693;BME280;70055;39.436;-77.514;2024-03-02T12:18:25;100249.89;;;1.30;82.06
80693;BME280;70055;39.436;-77.514;2024-03-02T12:20:53;100255.90;;;1.69;81.12
80693;BME280;70055;39.436;-77.514;2024-03-02T12:23:20;100245.87;;;1.55;80.55
80693;BME280;70055;39.436;-77.514;2024-03-02T12:25:48;100249.34;;;1.93;81.33
80693;BME280;70055;39.436;-77.514;2024-03-02T12:28:16;100244.45;;;1.66;81.79
80693;BME280;70055;39.436;-77.514;2024-03-02T12:30:46;100255.67;;;2.02;80.49
80693;BME280;70055;39.436;-77.514;2024-03-02T12:33:14;100247.32;;;2.00;80.24
80693;BME280;70055;39.436;-77.514;2024-03-02T12:35:44;100248.01;;;2.12;79.44
80693;BME280;70055;39.436;-77.514;2024-03-02T12:38:13;100243.92;;;2.22;78.59
80693;BME280;70055;39.436;-77.514;2024-03-02T12:40:41;100240.49;;;1.79;80.09
80693;BME280;70055;39.436;-77.514;2024-03-02T12:43:09;100235.29;;;1.42;81.24
80693;BME280;70055;39.436;-77.514;2024-03-02T12:45:38;100238.47;;;1.15;83.26
80693;BME280;70055;39.436;-77.514;2024-03-02T12:48:09;100235.53;;;1.94;81.51
80693;BME280;70055;39.436;-77.514;2024-03-02T12:50:37;100224.50;;;1.93;82.11